Time;durP1;ratioP1;P1;durP2;ratioP2;P2;SDS_P1;SDS_P2;PMS_P1;PMS_P2;Temp;Humidity;BMP_temperature;BMP_pressure;BME280_temperature;BME280_humidity;BME280_pressure;Samples;Min_cycle;Max_cycle;Signal;HPM_P1;HPM_P2
2022/03/25 00:00:12;;;;;;;89.55;53.97;;;;;;;;;;5052695;28;20691;-29
2022/03/25 00:02:39;;;;;;;90.18;54.05;;;;;;;;;;5052001;28;20430;-31
2022/03/25 00:05:05;;;;;;;89.65;53.30;;;;;;;;;;5052945;28;20569;-29
2022/03/25 00:07:32;;;;;;;95.55;56.90;;;;;;;;;;5052904;28;20136;-27
2022/03/25 00:09:59;;;;;;;93.53;55.55;;;;;;;;;;5091547;28;20048;-28
2022/03/25 00:12:26;;;;;;;96.63;57.20;;;;;;;;;;5092943;28;20043;-27
2022/03/25 00:14:52;;;;;;;99.47;58.72;;;;;;;;;;5092638;28;20036;-27
2022/03/25 00:17:18;;;;;;;93.60;55.45;;;;;;;;;;5092537;28;20044;-26
2022/03/25 00:19:44;;;;;;;94.38;56.50;;;;;;;;;;5074706;28;20036;-26
2022/03/25 00:22:10;;;;;;;88.18;52.80;;;;;;;;;;5092752;28;20096;-26
2022/03/25 00:24:36;;;;;;;87.38;54.13;;;;;;;;;;5086585;28;20444;-27
2022/03/25 00:27:04;;;;;;;82.47;51.95;;;;;;;;;;5070450;28;20037;-26
2022/03/25 00:29:30;;;;;;;93.53;52.65;;;;;;;;;;5051804;28;20079;-26
2022/03/25 00:31:56;;;;;;;98.18;59.60;;;;;;;;;;5052300;28;20070;-26
2022/03/25 00:34:22;;;;;;;82.68;51.47;;;;;;;;;;5052378;28;20072;-26
2022/03/25 00:36:48;;;;;;;91.35;54.00;;;;;;;;;;5052394;28;20216;-27
2022/03/25 00:39:14;;;;;;;92.15;54.25;;;;;;;;;;5052193;28;20402;-27
2022/03/25 00:41:40;;;;;;;97.88;55.78;;;;;;;;;;5052287;28;20067;-26
2022/03/25 00:44:07;;;;;;;101.78;58.63;;;;;;;;;;5051924;28;20120;-26
2022/03/25 00:46:35;;;;;;;100.93;58.92;;;;;;;;;;5055407;28;20036;-25
2022/03/25 00:49:01;;;;;;;89.53;56.50;;;;;;;;;;5071676;28;20051;-25
2022/03/25 00:51:28;;;;;;;94.65;56.30;;;;;;;;;;5071976;28;20068;-26
2022/03/25 00:53:54;;;;;;;97.25;57.05;;;;;;;;;;5071978;28;20040;-28
2022/03/25 00:56:20;;;;;;;95.82;56.63;;;;;;;;;;5069111;28;20517;-26
2022/03/25 00:58:46;;;;;;;104.45;59.28;;;;;;;;;;5033857;28;20387;-25
2022/03/25 01:01:12;;;;;;;95.95;56.40;;;;;;;;;;5032471;28;20045;-30
2022/03/25 01:03:38;;;;;;;97.65;56.22;;;;;;;;;;5060010;28;20043;-29
2022/03/25 01:06:04;;;;;;;97.22;56.22;;;;;;;;;;5051254;28;20040;-28
2022/03/25 01:08:31;;;;;;;115.28;63.15;;;;;;;;;;5064217;28;20041;-30
2022/03/25 01:10:57;;;;;;;111.85;63.85;;;;;;;;;;5058797;28;20044;-29
2022/03/25 01:13:23;;;;;;;104.13;58.95;;;;;;;;;;5051674;28;20076;-29
2022/03/25 01:15:49;;;;;;;113.90;55.50;;;;;;;;;;5058835;28;20409;-29
2022/03/25 01:18:15;;;;;;;87.20;52.35;;;;;;;;;;5060024;28;20127;-30
2022/03/25 01:20:42;;;;;;;145.35;61.40;;;;;;;;;;5063657;28;20049;-29
2022/03/25 01:23:09;;;;;;;121.45;57.70;;;;;;;;;;5061662;28;20039;-30
2022/03/25 01:25:36;;;;;;;95.85;53.10;;;;;;;;;;5058709;28;20033;-29
2022/03/25 01:28:02;;;;;;;119.97;58.55;;;;;;;;;;5052547;28;20041;-29
2022/03/25 01:30:28;;;;;;;151.20;57.10;;;;;;;;;;5042229;28;20510;-28
2022/03/25 01:32:55;;;;;;;137.55;56.97;;;;;;;;;;5060724;28;20037;-29
2022/03/25 01:35:24;;;;;;;96.55;56.33;;;;;;;;;;5043637;28;20117;-32
2022/03/25 01:37:50;;;;;;;98.72;52.00;;;;;;;;;;5049876;28;20135;-30
2022/03/25 01:40:17;;;;;;;120.05;55.47;;;;;;;;;;5051655;28;20045;-30
2022/03/25 01:42:43;;;;;;;105.28;52.78;;;;;;;;;;5065111;28;20032;-29
2022/03/25 01:45:11;;;;;;;127.90;54.63;;;;;;;;;;5067380;28;20045;-31
2022/03/25 01:47:38;;;;;;;121.40;56.28;;;;;;;;;;5059471;28;20037;-29
2022/03/25 01:50:12;;;;;;;122.78;55.20;;;;;;;;;;5055008;28;20112;-30
2022/03/25 01:52:39;;;;;;;88.55;50.78;;;;;;;;;;5067117;28;20128;-29
2022/03/25 01:55:21;;;;;;;79.03;48.83;;;;;;;;;;5061070;28;20375;-28
2022/03/25 01:57:47;;;;;;;82.60;49.35;;;;;;;;;;5061267;28;20049;-31
2022/03/25 02:00:15;;;;;;;108.60;53.45;;;;;;;;;;5060607;28;20048;-29
2022/03/25 02:02:41;;;;;;;90.45;50.17;;;;;;;;;;5068442;28;20047;-29
2022/03/25 02:05:07;;;;;;;121.13;55.55;;;;;;;;;;5059470;28;20530;-30
2022/03/25 02:07:33;;;;;;;103.50;51.08;;;;;;;;;;5038503;28;20041;-29
2022/03/25 02:10:00;;;;;;;102.05;53.28;;;;;;;;;;5054361;28;20086;-29
2022/03/25 02:12:26;;;;;;;132.35;54.40;;;;;;;;;;5060290;28;20076;-30
2022/03/25 02:14:52;;;;;;;106.43;51.75;;;;;;;;;;5062550;28;20099;-28
2022/03/25 02:17:18;;;;;;;135.35;54.17;;;;;;;;;;5068308;28;20043;-28
2022/03/25 02:19:44;;;;;;;116.32;52.88;;;;;;;;;;5069951;28;20036;-31
2022/03/25 02:22:11;;;;;;;114.43;53.50;;;;;;;;;;5057914;28;20044;-28
2022/03/25 02:24:37;;;;;;;112.68;53.22;;;;;;;;;;5065052;28;20507;-30
2022/03/25 02:27:03;;;;;;;103.15;50.05;;;;;;;;;;5060825;28;20082;-31
2022/03/25 02:29:29;;;;;;;94.00;48.95;;;;;;;;;;5069849;28;20430;-29
2022/03/25 02:31:55;;;;;;;94.78;48.45;;;;;;;;;;5055128;28;20077;-29
2022/03/25 02:34:21;;;;;;;82.10;47.47;;;;;;;;;;5058222;28;20047;-29
2022/03/25 02:36:47;;;;;;;93.30;50.35;;;;;;;;;;5065524;28;20041;-29
2022/03/25 02:39:15;;;;;;;79.50;46.08;;;;;;;;;;5061224;28;20089;-28
2022/03/25 02:41:41;;;;;;;88.00;48.78;;;;;;;;;;5059159;28;20045;-26
2022/03/25 02:44:08;;;;;;;101.93;51.70;;;;;;;;;;5052881;28;20029;-29
2022/03/25 02:46:34;;;;;;;92.53;48.58;;;;;;;;;;5053485;28;20048;-26
2022/03/25 02:49:01;;;;;;;104.07;51.60;;;;;;;;;;5054375;28;20040;-25
2022/03/25 02:51:27;;;;;;;152.80;55.17;;;;;;;;;;5053669;28;20136;-26
2022/03/25 02:53:53;;;;;;;105.45;50.70;;;;;;;;;;5054204;28;20048;-27
2022/03/25 02:56:19;;;;;;;109.68;46.90;;;;;;;;;;5072123;28;20127;-26
2022/03/25 02:58:45;;;;;;;163.90;56.20;;;;;;;;;;5069945;28;20101;-27
2022/03/25 03:01:13;;;;;;;90.60;48.80;;;;;;;;;;5053931;28;20056;-25
2022/03/25 03:03:40;;;;;;;92.25;47.35;;;;;;;;;;5054334;28;20045;-25
2022/03/25 03:06:07;;;;;;;95.78;49.35;;;;;;;;;;5054149;28;20029;-27
2022/03/25 03:08:35;;;;;;;97.55;50.53;;;;;;;;;;5054291;28;20041;-26
2022/03/25 03:11:01;;;;;;;115.32;47.22;;;;;;;;;;5053615;28;20155;-27
2022/03/25 03:13:28;;;;;;;396.10;74.55;;;;;;;;;;5053579;28;20045;-26
2022/03/25 03:15:54;;;;;;;544.92;76.57;;;;;;;;;;5053780;28;20120;-27
2022/03/25 03:18:20;;;;;;;108.78;50.05;;;;;;;;;;5053805;28;20045;-26
2022/03/25 03:20:46;;;;;;;144.15;50.55;;;;;;;;;;5053409;28;20052;-27
2022/03/25 03:23:13;;;;;;;103.80;47.13;;;;;;;;;;5064400;28;20500;-27
2022/03/25 03:25:39;;;;;;;167.77;50.92;;;;;;;;;;5073627;28;20037;-27
2022/03/25 03:28:05;;;;;;;528.38;85.45;;;;;;;;;;5073569;28;20064;-26
2022/03/25 03:30:32;;;;;;;187.70;51.90;;;;;;;;;;5073465;28;20040;-26
2022/03/25 03:32:58;;;;;;;248.18;55.28;;;;;;;;;;5073693;28;20036;-25
2022/03/25 03:35:25;;;;;;;136.25;48.08;;;;;;;;;;5073165;28;20538;-25
2022/03/25 03:37:51;;;;;;;190.10;55.75;;;;;;;;;;5073355;28;20645;-27
2022/03/25 03:40:18;;;;;;;163.38;48.75;;;;;;;;;;5060582;28;20372;-25
2022/03/25 03:42:44;;;;;;;189.55;50.72;;;;;;;;;;5053488;28;20399;-26
2022/03/25 03:45:11;;;;;;;114.82;47.72;;;;;;;;;;5053259;28;20041;-27
2022/03/25 03:47:38;;;;;;;135.55;50.33;;;;;;;;;;5053311;28;20045;-25
2022/03/25 03:50:05;;;;;;;109.00;47.92;;;;;;;;;;5052877;28;20045;-25
2022/03/25 03:52:31;;;;;;;124.13;46.92;;;;;;;;;;5053365;28;20124;-26
2022/03/25 03:54:58;;;;;;;124.78;46.75;;;;;;;;;;5053133;28;20048;-27
2022/03/25 03:57:24;;;;;;;184.25;49.75;;;;;;;;;;5052779;28;20044;-28
2022/03/25 03:59:50;;;;;;;89.15;43.08;;;;;;;;;;5053073;28;20049;-26
2022/03/25 04:02:16;;;;;;;161.55;49.55;;;;;;;;;;5053210;28;20052;-26
2022/03/25 04:04:42;;;;;;;140.98;46.67;;;;;;;;;;5052054;28;20037;-26
2022/03/25 04:07:08;;;;;;;172.93;50.80;;;;;;;;;;5052541;28;20037;-26
2022/03/25 04:09:36;;;;;;;143.95;47.03;;;;;;;;;;5052722;28;20033;-26
2022/03/25 04:12:02;;;;;;;201.60;53.30;;;;;;;;;;5052748;28;20571;-26
2022/03/25 04:14:28;;;;;;;91.22;43.13;;;;;;;;;;5052374;28;20123;-26
2022/03/25 04:16:54;;;;;;;147.48;47.63;;;;;;;;;;5034595;28;20060;-25
2022/03/25 04:19:20;;;;;;;98.13;43.15;;;;;;;;;;5052362;28;20041;-26
2022/03/25 04:21:46;;;;;;;161.88;50.22;;;;;;;;;;5052428;28;20495;-25
2022/03/25 04:24:12;;;;;;;111.10;44.85;;;;;;;;;;5052126;28;20037;-26
2022/03/25 04:26:38;;;;;;;134.82;45.03;;;;;;;;;;5052074;28;20049;-26
2022/03/25 04:29:04;;;;;;;127.35;44.70;;;;;;;;;;5052167;28;20041;-25
2022/03/25 04:31:30;;;;;;;74.95;41.90;;;;;;;;;;5052278;28;20045;-25
2022/03/25 04:33:57;;;;;;;126.05;45.38;;;;;;;;;;5052607;28;20045;-25
2022/03/25 04:36:23;;;;;;;236.02;51.95;;;;;;;;;;5052337;28;20041;-28
2022/03/25 04:38:49;;;;;;;159.75;47.10;;;;;;;;;;5051979;28;20046;-26
2022/03/25 04:41:15;;;;;;;74.20;39.97;;;;;;;;;;5052099;28;20529;-25
2022/03/25 04:43:41;;;;;;;67.88;38.80;;;;;;;;;;5051787;28;20045;-25
2022/03/25 04:46:08;;;;;;;116.90;44.10;;;;;;;;;;5052208;28;20466;-25
2022/03/25 04:48:34;;;;;;;163.38;47.45;;;;;;;;;;5051661;28;20037;-28
2022/03/25 04:51:00;;;;;;;108.90;41.80;;;;;;;;;;5052030;28;20509;-26
2022/03/25 04:53:27;;;;;;;161.25;44.30;;;;;;;;;;5051346;28;20045;-25
2022/03/25 04:55:53;;;;;;;189.38;46.33;;;;;;;;;;5051839;28;20068;-26
2022/03/25 04:58:19;;;;;;;100.75;43.58;;;;;;;;;;5051564;28;20047;-27
2022/03/25 05:00:45;;;;;;;133.45;44.75;;;;;;;;;;5051373;28;20045;-25
2022/03/25 05:03:11;;;;;;;108.20;42.90;;;;;;;;;;5051857;28;20052;-25
2022/03/25 05:05:42;;;;;;;178.57;47.65;;;;;;;;;;5051407;28;20094;-25
2022/03/25 05:08:09;;;;;;;204.82;49.25;;;;;;;;;;5051367;28;20091;-25
2022/03/25 05:10:37;;;;;;;108.57;42.60;;;;;;;;;;5081843;28;20047;-25
2022/03/25 05:13:04;;;;;;;130.98;45.22;;;;;;;;;;5091888;28;20044;-26
2022/03/25 05:15:30;;;;;;;125.13;43.10;;;;;;;;;;5091875;28;20676;-25
2022/03/25 05:17:56;;;;;;;130.15;43.92;;;;;;;;;;5091758;28;20070;-26
2022/03/25 05:20:24;;;;;;;253.75;48.05;;;;;;;;;;5092092;28;20036;-25
2022/03/25 05:22:50;;;;;;;191.52;46.25;;;;;;;;;;5091820;28;20489;-25
2022/03/25 05:25:17;;;;;;;158.73;46.25;;;;;;;;;;5091870;28;20114;-27
2022/03/25 05:27:43;;;;;;;108.57;41.67;;;;;;;;;;5091690;28;20043;-25
2022/03/25 05:30:10;;;;;;;93.93;41.80;;;;;;;;;;5091510;28;20031;-29
2022/03/25 05:32:36;;;;;;;156.45;49.47;;;;;;;;;;5091715;28;20109;-26
2022/03/25 05:35:02;;;;;;;166.32;46.85;;;;;;;;;;5078775;28;20128;-26
2022/03/25 05:37:28;;;;;;;127.03;44.97;;;;;;;;;;5070904;28;20044;-27
2022/03/25 05:39:55;;;;;;;106.50;42.88;;;;;;;;;;5071391;28;20051;-26
2022/03/25 05:42:21;;;;;;;138.95;48.20;;;;;;;;;;5053081;28;20037;-26
2022/03/25 05:44:47;;;;;;;130.18;46.80;;;;;;;;;;5053461;28;20040;-26
2022/03/25 05:47:13;;;;;;;196.20;49.75;;;;;;;;;;5071943;28;20120;-25
2022/03/25 05:49:39;;;;;;;160.57;49.05;;;;;;;;;;5071675;28;20044;-25
2022/03/25 05:52:06;;;;;;;70.57;42.55;;;;;;;;;;5071469;28;20063;-26
2022/03/25 05:54:32;;;;;;;123.68;46.33;;;;;;;;;;5077580;28;20185;-27
2022/03/25 05:56:58;;;;;;;123.25;49.38;;;;;;;;;;5091477;28;20044;-26
2022/03/25 05:59:24;;;;;;;218.05;58.75;;;;;;;;;;5091437;28;20543;-26
2022/03/25 06:01:50;;;;;;;124.22;48.70;;;;;;;;;;5073037;28;20082;-25
2022/03/25 06:04:16;;;;;;;139.90;49.72;;;;;;;;;;5091833;28;20398;-25
2022/03/25 06:06:42;;;;;;;136.02;48.90;;;;;;;;;;5073488;28;20052;-25
2022/03/25 06:09:08;;;;;;;120.40;47.63;;;;;;;;;;5091220;28;20040;-27
2022/03/25 06:11:35;;;;;;;82.30;43.95;;;;;;;;;;5072936;28;20069;-28
2022/03/25 06:14:01;;;;;;;103.22;48.22;;;;;;;;;;5073006;28;20193;-28
2022/03/25 06:16:27;;;;;;;111.57;47.28;;;;;;;;;;5091108;28;20044;-27
2022/03/25 06:18:55;;;;;;;91.65;48.15;;;;;;;;;;5085558;28;20048;-27
2022/03/25 06:21:21;;;;;;;99.90;48.55;;;;;;;;;;5050862;28;20055;-27
2022/03/25 06:23:47;;;;;;;129.52;53.05;;;;;;;;;;5069518;28;20482;-26
2022/03/25 06:26:14;;;;;;;96.78;48.45;;;;;;;;;;5052888;28;20117;-26
2022/03/25 06:28:40;;;;;;;114.32;48.45;;;;;;;;;;5036276;28;20048;-26
2022/03/25 06:31:08;;;;;;;160.73;52.85;;;;;;;;;;5054099;28;20041;-26
2022/03/25 06:33:34;;;;;;;106.32;50.10;;;;;;;;;;5054305;28;20056;-38
2022/03/25 06:36:01;;;;;;;155.18;48.65;;;;;;;;;;5053672;28;20120;-25
2022/03/25 06:38:27;;;;;;;159.15;56.60;;;;;;;;;;5056035;28;20048;-26
2022/03/25 06:40:53;;;;;;;159.43;54.28;;;;;;;;;;5074233;28;20043;-26
2022/03/25 06:43:19;;;;;;;89.38;48.65;;;;;;;;;;5074409;28;20090;-27
2022/03/25 06:45:45;;;;;;;74.07;45.22;;;;;;;;;;5057010;28;20517;-27
2022/03/25 06:48:12;;;;;;;83.20;46.78;;;;;;;;;;5054203;28;20036;-29
2022/03/25 06:50:38;;;;;;;77.32;46.10;;;;;;;;;;5053829;28;20045;-27
2022/03/25 06:53:04;;;;;;;88.00;44.83;;;;;;;;;;5036422;28;20032;-27
2022/03/25 06:55:31;;;;;;;89.18;46.17;;;;;;;;;;5036695;28;20394;-29
2022/03/25 06:57:57;;;;;;;91.63;47.78;;;;;;;;;;5054200;28;20033;-25
2022/03/25 07:00:24;;;;;;;109.93;48.00;;;;;;;;;;5054027;28;20043;-24
2022/03/25 07:02:51;;;;;;;72.07;43.83;;;;;;;;;;5054066;28;20087;-28
2022/03/25 07:05:17;;;;;;;66.22;42.28;;;;;;;;;;5053882;28;20041;-31
2022/03/25 07:07:44;;;;;;;67.82;44.15;;;;;;;;;;5058673;28;20037;-29
2022/03/25 07:10:11;;;;;;;69.00;45.05;;;;;;;;;;5050545;28;20041;-26
2022/03/25 07:12:38;;;;;;;69.43;45.25;;;;;;;;;;5054017;28;20371;-25
2022/03/25 07:15:05;;;;;;;70.25;46.03;;;;;;;;;;5053840;28;20127;-26
2022/03/25 07:17:33;;;;;;;79.55;48.35;;;;;;;;;;5068695;28;20044;-26
2022/03/25 07:19:59;;;;;;;72.60;45.70;;;;;;;;;;5093822;28;20036;-25
2022/03/25 07:22:25;;;;;;;74.30;47.35;;;;;;;;;;5092108;28;20044;-27
2022/03/25 07:24:51;;;;;;;67.20;43.22;;;;;;;;;;5093057;28;20078;-25
2022/03/25 07:27:18;;;;;;;76.07;49.10;;;;;;;;;;5093913;28;20063;-27
2022/03/25 07:29:44;;;;;;;74.50;46.60;;;;;;;;;;5093593;28;20040;-27
2022/03/25 07:32:11;;;;;;;73.03;44.78;;;;;;;;;;5075042;28;20071;-25
2022/03/25 07:34:38;;;;;;;74.15;45.97;;;;;;;;;;5093447;28;20043;-25
2022/03/25 07:37:04;;;;;;;77.82;47.60;;;;;;;;;;5093308;28;20498;-25
2022/03/25 07:39:31;;;;;;;75.50;46.80;;;;;;;;;;5075118;28;20482;-26
2022/03/25 07:41:57;;;;;;;72.30;45.05;;;;;;;;;;5093492;28;20038;-27
2022/03/25 07:44:23;;;;;;;69.78;45.90;;;;;;;;;;5080878;28;20397;-27
2022/03/25 07:46:49;;;;;;;80.55;47.45;;;;;;;;;;5068125;28;20482;-25
2022/03/25 07:49:19;;;;;;;73.03;45.38;;;;;;;;;;5056316;28;20142;-32
2022/03/25 07:51:46;;;;;;;67.03;43.17;;;;;;;;;;5061849;28;20048;-28
2022/03/25 07:54:12;;;;;;;72.53;45.70;;;;;;;;;;5063513;28;20098;-28
2022/03/25 07:56:38;;;;;;;67.93;44.35;;;;;;;;;;5063071;28;20127;-28
2022/03/25 07:59:05;;;;;;;70.88;44.70;;;;;;;;;;5063073;28;20393;-28
2022/03/25 08:01:31;;;;;;;70.32;42.63;;;;;;;;;;5046563;28;20072;-29
2022/03/25 08:03:57;;;;;;;67.93;43.30;;;;;;;;;;5061431;28;20042;-30
2022/03/25 08:06:24;;;;;;;71.10;44.30;;;;;;;;;;5061493;28;20103;-29
2022/03/25 08:08:50;;;;;;;65.40;42.80;;;;;;;;;;5061626;28;20415;-28
2022/03/25 08:11:20;;;;;;;65.22;43.30;;;;;;;;;;5060772;28;20044;-30
2022/03/25 08:13:47;;;;;;;60.75;39.90;;;;;;;;;;5057727;28;20040;-33
2022/03/25 08:16:15;;;;;;;62.42;41.85;;;;;;;;;;5061915;28;20478;-28
2022/03/25 08:18:42;;;;;;;60.88;41.13;;;;;;;;;;5060172;28;20052;-31
2022/03/25 08:21:08;;;;;;;52.65;37.70;;;;;;;;;;5066607;28;20178;-30
2022/03/25 08:29:23;;;;;;;57.13;39.13;;;;;;;;;;5003052;28;20041;-29
2022/03/25 08:31:49;;;;;;;58.35;38.85;;;;;;;;;;5034486;28;20458;-29
2022/03/25 08:34:16;;;;;;;57.35;37.38;;;;;;;;;;5060237;28;20102;-30
2022/03/25 08:36:43;;;;;;;49.58;35.65;;;;;;;;;;5060084;28;20041;-26
2022/03/25 08:39:10;;;;;;;50.90;35.33;;;;;;;;;;5071029;28;20044;-26
2022/03/25 08:41:36;;;;;;;49.70;36.22;;;;;;;;;;5057873;28;20046;-27
2022/03/25 08:44:02;;;;;;;50.90;35.90;;;;;;;;;;5065168;28;20040;-26
2022/03/25 08:46:28;;;;;;;51.17;37.63;;;;;;;;;;5059854;28;20033;-29
2022/03/25 08:48:55;;;;;;;49.72;35.85;;;;;;;;;;5072065;28;20104;-25
2022/03/25 08:51:21;;;;;;;45.72;35.22;;;;;;;;;;5047866;28;20037;-27
2022/03/25 08:53:47;;;;;;;48.78;36.08;;;;;;;;;;5062701;28;20044;-27
2022/03/25 08:56:13;;;;;;;46.47;35.22;;;;;;;;;;5074905;28;20055;-28
2022/03/25 08:58:40;;;;;;;49.38;36.67;;;;;;;;;;5077758;28;20036;-26
2022/03/25 09:01:07;;;;;;;48.38;35.55;;;;;;;;;;5073199;28;20055;-28
2022/03/25 09:03:33;;;;;;;46.53;35.65;;;;;;;;;;5051639;28;20037;-27
2022/03/25 09:05:59;;;;;;;42.70;33.58;;;;;;;;;;5060685;28;20036;-27
2022/03/25 09:08:25;;;;;;;43.67;34.05;;;;;;;;;;5075117;28;20460;-27
2022/03/25 09:10:53;;;;;;;44.15;34.30;;;;;;;;;;5071274;28;20463;-27
2022/03/25 09:13:19;;;;;;;42.58;34.08;;;;;;;;;;5071499;28;20052;-27
2022/03/25 09:15:46;;;;;;;40.28;31.73;;;;;;;;;;5071667;28;20040;-27
2022/03/25 09:18:12;;;;;;;40.65;32.95;;;;;;;;;;5071661;28;20041;-27
2022/03/25 09:20:39;;;;;;;43.90;34.00;;;;;;;;;;5071367;28;20375;-28
2022/03/25 09:23:06;;;;;;;41.33;32.75;;;;;;;;;;5067503;28;20037;-27
2022/03/25 09:25:32;;;;;;;39.80;32.95;;;;;;;;;;5051422;28;20437;-28
2022/03/25 09:27:58;;;;;;;41.10;32.70;;;;;;;;;;5051723;28;20044;-27
2022/03/25 09:30:25;;;;;;;40.33;31.98;;;;;;;;;;5051400;28;20120;-27
2022/03/25 09:32:51;;;;;;;38.58;30.77;;;;;;;;;;5060676;28;20044;-27
2022/03/25 09:35:19;;;;;;;39.40;33.15;;;;;;;;;;5071194;28;20050;-28
2022/03/25 09:37:46;;;;;;;44.78;32.88;;;;;;;;;;5071059;28;20052;-27
2022/03/25 09:40:14;;;;;;;42.45;33.05;;;;;;;;;;5070749;28;20068;-28
2022/03/25 09:42:41;;;;;;;38.83;32.45;;;;;;;;;;5039157;28;20052;-30
2022/03/25 09:45:08;;;;;;;42.28;32.88;;;;;;;;;;5068583;28;20040;-27
2022/03/25 09:47:34;;;;;;;46.05;33.45;;;;;;;;;;5057274;28;20478;-28
2022/03/25 09:50:02;;;;;;;41.20;33.05;;;;;;;;;;5033052;28;20048;-28
2022/03/25 09:52:32;;;;;;;44.00;33.33;;;;;;;;;;5055909;28;20375;-28
2022/03/25 09:54:59;;;;;;;41.83;34.03;;;;;;;;;;5060140;28;20041;-28
2022/03/25 09:57:26;;;;;;;43.28;33.78;;;;;;;;;;5078581;28;20037;-29
2022/03/25 09:59:52;;;;;;;38.95;32.67;;;;;;;;;;5070421;28;20048;-29
2022/03/25 10:02:18;;;;;;;42.17;32.78;;;;;;;;;;5071801;28;20087;-30
2022/03/25 10:04:45;;;;;;;41.42;32.78;;;;;;;;;;5058741;28;20072;-29
2022/03/25 10:07:15;;;;;;;40.65;33.20;;;;;;;;;;5063176;28;20117;-29
2022/03/25 10:09:41;;;;;;;39.90;33.40;;;;;;;;;;5056514;28;20033;-28
2022/03/25 10:12:23;;;;;;;43.42;34.38;;;;;;;;;;5071417;28;20064;-28
2022/03/25 10:14:50;;;;;;;44.35;32.97;;;;;;;;;;5075150;28;20052;-27
2022/03/25 10:17:16;;;;;;;39.88;32.75;;;;;;;;;;5073701;28;20040;-28
2022/03/25 10:19:49;;;;;;;39.22;32.13;;;;;;;;;;5059942;28;20049;-28
2022/03/25 10:22:18;;;;;;;39.03;32.45;;;;;;;;;;5054582;28;20406;-28
2022/03/25 10:24:49;;;;;;;40.47;31.60;;;;;;;;;;5076373;28;20064;-29
2022/03/25 10:27:17;;;;;;;38.05;32.10;;;;;;;;;;5054211;28;20037;-29
2022/03/25 10:29:47;;;;;;;38.42;31.80;;;;;;;;;;5065589;28;20098;-29
2022/03/25 10:32:14;;;;;;;38.92;30.98;;;;;;;;;;5054477;28;20182;-29
2022/03/25 10:34:41;;;;;;;40.20;30.90;;;;;;;;;;5044272;28;20481;-29
2022/03/25 10:37:11;;;;;;;39.67;31.98;;;;;;;;;;5068579;28;20072;-29
2022/03/25 10:39:39;;;;;;;37.88;30.92;;;;;;;;;;5062211;28;20045;-29
2022/03/25 10:42:06;;;;;;;39.65;31.55;;;;;;;;;;5054025;28;20052;-28
2022/03/25 10:44:36;;;;;;;39.97;31.70;;;;;;;;;;5062050;28;20056;-29
2022/03/25 10:47:24;;;;;;;39.70;29.80;;;;;;;;;;5069454;28;20124;-31
2022/03/25 10:49:52;;;;;;;33.53;28.23;;;;;;;;;;5055161;28;20033;-29
2022/03/25 10:52:30;;;;;;;37.83;30.58;;;;;;;;;;5072361;28;20086;-29
2022/03/25 10:55:14;;;;;;;36.80;29.98;;;;;;;;;;5073551;28;20080;-31
2022/03/25 10:57:49;;;;;;;37.58;28.05;;;;;;;;;;5056703;28;20032;-30
2022/03/25 11:00:16;;;;;;;32.00;28.33;;;;;;;;;;5074377;28;20037;-30
2022/03/25 11:02:44;;;;;;;34.55;29.42;;;;;;;;;;5056574;28;20068;-30
2022/03/25 11:05:10;;;;;;;34.75;28.98;;;;;;;;;;5056476;28;20044;-29
2022/03/25 11:07:37;;;;;;;32.38;27.35;;;;;;;;;;5073991;28;20047;-29
2022/03/25 11:10:03;;;;;;;31.67;26.13;;;;;;;;;;5074390;28;20059;-29
2022/03/25 11:12:32;;;;;;;34.55;28.23;;;;;;;;;;5073974;28;20109;-29
2022/03/25 11:15:00;;;;;;;33.65;27.00;;;;;;;;;;5073930;28;20055;-29
2022/03/25 11:17:27;;;;;;;36.00;27.52;;;;;;;;;;5074731;28;20040;-30
2022/03/25 11:19:54;;;;;;;31.67;26.48;;;;;;;;;;5074509;28;20444;-31
2022/03/25 11:22:22;;;;;;;30.15;25.30;;;;;;;;;;5074357;28;20047;-28
2022/03/25 11:24:52;;;;;;;30.80;25.60;;;;;;;;;;5074483;28;20117;-29
2022/03/25 11:27:24;;;;;;;37.28;25.55;;;;;;;;;;5074085;28;20158;-31
2022/03/25 11:29:53;;;;;;;32.30;25.58;;;;;;;;;;5074043;28;20085;-29
2022/03/25 11:32:20;;;;;;;29.33;26.13;;;;;;;;;;5091138;28;20378;-29
2022/03/25 11:34:47;;;;;;;29.27;25.15;;;;;;;;;;5094052;28;20544;-28
2022/03/25 11:37:18;;;;;;;33.95;26.23;;;;;;;;;;5073895;28;20036;-28
2022/03/25 11:39:44;;;;;;;31.08;25.75;;;;;;;;;;5074083;28;20043;-28
2022/03/25 11:42:30;;;;;;;30.55;26.75;;;;;;;;;;5073624;28;20134;-29
2022/03/25 11:45:14;;;;;;;31.67;26.17;;;;;;;;;;5073932;28;20059;-28
2022/03/25 11:47:41;;;;;;;33.45;24.65;;;;;;;;;;5093824;28;20036;-28
2022/03/25 11:50:45;;;;;;;29.10;25.65;;;;;;;;;;5093757;28;20508;-30
2022/03/25 11:53:11;;;;;;;32.85;26.90;;;;;;;;;;4959363;28;20061;-29
2022/03/25 11:55:56;;;;;;;28.88;25.75;;;;;;;;;;4975579;28;20050;-29
2022/03/25 11:58:22;;;;;;;30.42;25.50;;;;;;;;;;5047851;28;20529;-29
2022/03/25 12:00:51;;;;;;;27.63;24.48;;;;;;;;;;5072967;28;20032;-28
2022/03/25 12:03:18;;;;;;;30.58;25.38;;;;;;;;;;5072893;28;20055;-29
2022/03/25 12:06:00;;;;;;;31.30;26.27;;;;;;;;;;5072541;28;20047;-28
2022/03/25 12:08:29;;;;;;;29.35;26.15;;;;;;;;;;5071562;28;20136;-28
2022/03/25 12:10:55;;;;;;;32.65;26.25;;;;;;;;;;5072772;28;20124;-30
2022/03/25 12:13:22;;;;;;;30.77;25.27;;;;;;;;;;5073044;28;20048;-29
2022/03/25 12:15:51;;;;;;;30.85;25.45;;;;;;;;;;5070823;28;20094;-28
2022/03/25 12:18:36;;;;;;;32.90;27.27;;;;;;;;;;5052665;28;20102;-28
2022/03/25 12:21:03;;;;;;;30.85;24.77;;;;;;;;;;5073316;28;20033;-28
2022/03/25 12:23:29;;;;;;;28.00;24.77;;;;;;;;;;5073030;28;20386;-28
2022/03/25 12:25:55;;;;;;;32.55;25.25;;;;;;;;;;5072336;28;20064;-29
2022/03/25 12:28:25;;;;;;;29.70;23.35;;;;;;;;;;5038090;28;20392;-29
2022/03/25 12:30:52;;;;;;;29.23;23.42;;;;;;;;;;5054731;28;20036;-29
2022/03/25 12:33:19;;;;;;;29.75;23.13;;;;;;;;;;5055082;28;20036;-29
2022/03/25 12:35:46;;;;;;;26.30;22.83;;;;;;;;;;5073210;28;20090;-29
2022/03/25 12:38:18;;;;;;;29.05;21.67;;;;;;;;;;5054862;28;20053;-29
2022/03/25 12:40:45;;;;;;;26.50;22.02;;;;;;;;;;5072804;28;20086;-31
2022/03/25 12:43:12;;;;;;;26.42;22.90;;;;;;;;;;5054752;28;20097;-28
2022/03/25 12:45:39;;;;;;;29.88;22.95;;;;;;;;;;5072307;28;20036;-29
2022/03/25 12:48:25;;;;;;;26.30;22.50;;;;;;;;;;5072544;28;20051;-29
2022/03/25 12:50:55;;;;;;;23.77;21.25;;;;;;;;;;5071417;28;20033;-29
2022/03/25 12:53:22;;;;;;;26.73;20.13;;;;;;;;;;5072436;28;20459;-28
2022/03/25 12:55:48;;;;;;;23.42;19.63;;;;;;;;;;5071871;28;20501;-29
2022/03/25 12:58:15;;;;;;;27.08;19.95;;;;;;;;;;5072468;28;20043;-30
2022/03/25 13:00:45;;;;;;;24.80;20.10;;;;;;;;;;5054298;28;20317;-27
2022/03/25 13:03:12;;;;;;;27.60;20.90;;;;;;;;;;5038069;28;20482;-27
2022/03/25 13:05:38;;;;;;;23.25;19.88;;;;;;;;;;5072070;28;20076;-28
2022/03/25 13:08:05;;;;;;;25.02;20.17;;;;;;;;;;5072196;28;20055;-28
2022/03/25 13:10:32;;;;;;;23.10;18.77;;;;;;;;;;5069943;28;20621;-28
2022/03/25 13:13:16;;;;;;;24.02;19.52;;;;;;;;;;5069549;28;20045;-28
2022/03/25 13:15:45;;;;;;;19.77;16.70;;;;;;;;;;5069482;28;20051;-28
2022/03/25 13:18:12;;;;;;;24.63;19.33;;;;;;;;;;5070563;28;20044;-28
2022/03/25 13:20:40;;;;;;;24.52;17.48;;;;;;;;;;5070507;28;20044;-29
2022/03/25 13:23:06;;;;;;;17.45;13.13;;;;;;;;;;5070772;28;20060;-28
2022/03/25 13:25:39;;;;;;;21.38;16.30;;;;;;;;;;5070986;28;20105;-28
2022/03/25 13:28:07;;;;;;;22.17;17.40;;;;;;;;;;5071962;28;20040;-29
2022/03/25 13:30:33;;;;;;;23.27;17.40;;;;;;;;;;5054035;28;20087;-29
2022/03/25 13:33:04;;;;;;;23.75;20.17;;;;;;;;;;5072235;28;20044;-29
2022/03/25 13:35:31;;;;;;;23.48;18.17;;;;;;;;;;5072445;28;20629;-28
2022/03/25 13:37:58;;;;;;;25.83;20.17;;;;;;;;;;5075853;28;20105;-28
2022/03/25 13:40:28;;;;;;;22.42;18.73;;;;;;;;;;5076035;28;20393;-28
2022/03/25 13:42:57;;;;;;;22.77;18.17;;;;;;;;;;5075997;28;20044;-29
2022/03/25 13:45:24;;;;;;;24.13;17.45;;;;;;;;;;5075824;28;20033;-28
2022/03/25 13:48:01;;;;;;;19.45;16.67;;;;;;;;;;5076431;28;20040;-29
2022/03/25 13:50:28;;;;;;;19.83;14.70;;;;;;;;;;5057720;28;20044;-29
2022/03/25 13:52:55;;;;;;;19.02;15.73;;;;;;;;;;5057853;28;20048;-30
2022/03/25 13:55:30;;;;;;;19.88;16.30;;;;;;;;;;5058000;28;20044;-28
2022/03/25 13:57:57;;;;;;;26.98;17.85;;;;;;;;;;5075491;28;20052;-29
2022/03/25 14:00:30;;;;;;;18.23;15.38;;;;;;;;;;5075720;28;20040;-28
2022/03/25 14:02:56;;;;;;;18.35;14.38;;;;;;;;;;5075797;28;20044;-28
2022/03/25 14:05:26;;;;;;;17.55;13.63;;;;;;;;;;5075492;28;20075;-29
2022/03/25 14:07:57;;;;;;;16.25;14.30;;;;;;;;;;5075703;28;20406;-27
2022/03/25 14:10:24;;;;;;;16.23;13.30;;;;;;;;;;5075658;28;20040;-27
2022/03/25 14:13:01;;;;;;;17.48;12.20;;;;;;;;;;5075834;28;20385;-28
2022/03/25 14:15:28;;;;;;;14.98;12.68;;;;;;;;;;5075892;28;20120;-29
2022/03/25 14:17:54;;;;;;;17.67;12.32;;;;;;;;;;5075385;28;20489;-29
2022/03/25 14:20:22;;;;;;;15.25;11.98;;;;;;;;;;5057233;28;20045;-28